Terminal Aerodrome Forecast
Issued by NWS Twin Cities, MN

Home | Current Version | Previous Version | Text Only | Print | Product List | Glossary On
Versions: 1 2 3 4 5 6 7 8 9 10 11 12 13 14 15 16 17
000
FTUS43 KMPX 220500
TAFEAU
TAF
KEAU 220536Z 2206/2306 14005KT P6SM SKC
     FM221500 14012G18KT P6SM SCT050 BKN200
     FM222000 15013G20KT P6SM BKN050 OVC120
     FM230000 14008KT P6SM SCT020 OVC040 PROB30 2303/2306 6SM -SHRA=

USA.gov is the U.S. government's official web portal to all federal, state and local government web resources and services.